createdAt,value
2022-10-22T00:02:22.705Z,61.57
2022-10-22T00:04:50.376Z,61.90
2022-10-22T00:07:18.701Z,61.68
2022-10-22T00:09:45.915Z,63.19
2022-10-22T00:12:14.471Z,61.94
2022-10-22T00:14:42.386Z,61.25
2022-10-22T00:17:11.575Z,60.29
2022-10-22T00:19:39.758Z,59.62
2022-10-22T00:22:07.810Z,59.24
2022-10-22T00:24:35.711Z,58.80
2022-10-22T00:27:02.755Z,58.68
2022-10-22T00:29:29.519Z,59.40
2022-10-22T00:34:28.668Z,58.85
2022-10-22T00:36:55.603Z,58.80
2022-10-22T00:39:24.562Z,59.16
2022-10-22T00:41:53.057Z,59.08
2022-10-22T00:44:57.133Z,59.04
2022-10-22T00:47:25.553Z,59.20
2022-10-22T00:49:53.999Z,60.31
2022-10-22T00:52:21.790Z,60.16
2022-10-22T00:54:49.268Z,59.41
2022-10-22T00:57:17.966Z,59.40
2022-10-22T00:59:44.654Z,59.03
2022-10-22T01:02:11.606Z,58.93
2022-10-22T01:04:38.282Z,59.17
2022-10-22T01:07:05.204Z,58.45
2022-10-22T01:09:31.836Z,58.29
2022-10-22T01:12:22.865Z,57.80
2022-10-22T01:15:08.058Z,59.68
2022-10-22T01:17:49.952Z,59.69
2022-10-22T01:20:53.924Z,60.38
2022-10-22T01:23:32.366Z,60.11
2022-10-22T01:26:05.401Z,59.84
2022-10-22T01:28:47.225Z,59.23
2022-10-22T01:31:17.128Z,59.33
2022-10-22T01:33:47.446Z,59.43
2022-10-22T01:36:15.765Z,59.21
2022-10-22T01:38:44.843Z,58.38
2022-10-22T01:41:11.586Z,58.58
2022-10-22T01:43:38.261Z,58.55
2022-10-22T01:46:07.095Z,58.56
2022-10-22T01:48:55.197Z,58.24
2022-10-22T01:51:34.301Z,58.69
2022-10-22T01:54:15.341Z,58.99
2022-10-22T01:57:28.600Z,59.81
2022-10-22T02:00:08.995Z,62.33
2022-10-22T02:02:49.844Z,61.42
2022-10-22T02:05:43.883Z,62.89
2022-10-22T02:08:14.852Z,61.76
2022-10-22T02:10:46.714Z,60.46
2022-10-22T02:13:27.228Z,60.17
2022-10-22T02:15:55.979Z,60.04
2022-10-22T02:18:27.431Z,60.32
2022-10-22T02:20:54.830Z,60.52
2022-10-22T02:23:22.212Z,61.65
2022-10-22T02:25:55.754Z,62.77
2022-10-22T02:28:41.784Z,62.90
2022-10-22T02:31:25.984Z,62.03
2022-10-22T02:33:56.563Z,62.60
2022-10-22T02:36:23.903Z,61.58
2022-10-22T02:38:52.372Z,62.47
2022-10-22T02:41:20.020Z,61.69
2022-10-22T02:43:53.616Z,61.02
2022-10-22T02:46:20.652Z,61.20
2022-10-22T02:48:47.648Z,61.80
2022-10-22T02:51:14.647Z,62.53
2022-10-22T02:53:41.422Z,62.40
2022-10-22T02:56:08.390Z,61.71
2022-10-22T02:58:35.204Z,61.11
2022-10-22T03:01:02.506Z,61.13
2022-10-22T03:03:29.237Z,60.34
2022-10-22T03:05:55.846Z,60.43
2022-10-22T03:08:22.411Z,60.72
2022-10-22T03:10:49.055Z,59.76
2022-10-22T03:13:15.651Z,59.63
2022-10-22T03:15:42.323Z,60.13
2022-10-22T03:18:08.923Z,59.34
2022-10-22T03:20:35.565Z,59.39
2022-10-22T03:23:02.970Z,59.32
2022-10-22T03:25:34.414Z,58.97
2022-10-22T03:28:05.320Z,59.04
2022-10-22T03:30:32.206Z,58.83
2022-10-22T03:32:59.251Z,59.88
2022-10-22T03:35:26.209Z,59.29
2022-10-22T03:37:53.202Z,59.98
2022-10-22T03:40:20.656Z,59.73
2022-10-22T03:42:47.403Z,60.16
2022-10-22T03:45:14.074Z,59.61
2022-10-22T03:47:40.920Z,59.42
2022-10-22T03:50:08.477Z,59.23
2022-10-22T03:52:37.733Z,59.76
2022-10-22T03:55:06.043Z,62.49
2022-10-22T03:57:32.854Z,61.91
2022-10-22T03:59:59.620Z,62.09
2022-10-22T04:02:26.401Z,61.88
2022-10-22T04:04:52.992Z,61.64
2022-10-22T04:07:19.557Z,61.06
2022-10-22T04:09:46.145Z,60.41
2022-10-22T04:12:12.733Z,60.18
2022-10-22T04:14:39.305Z,59.80
2022-10-22T04:17:05.898Z,60.35
2022-10-22T04:19:33.042Z,62.02
2022-10-22T04:22:00.409Z,62.06
2022-10-22T04:24:27.516Z,62.72
2022-10-22T04:26:55.613Z,64.42
2022-10-22T04:29:23.310Z,64.70
2022-10-22T04:31:49.941Z,64.22
2022-10-22T04:34:16.657Z,64.20
2022-10-22T04:36:43.245Z,64.00
2022-10-22T04:39:09.842Z,64.22
2022-10-22T04:41:38.839Z,63.06
2022-10-22T04:44:06.696Z,62.48
2022-10-22T04:46:38.222Z,62.19
2022-10-22T04:49:11.274Z,61.67
2022-10-22T04:51:41.457Z,62.38
2022-10-22T04:54:15.381Z,62.58
2022-10-22T04:56:45.294Z,62.88
2022-10-22T04:59:17.399Z,63.30
2022-10-22T05:01:47.651Z,62.23
2022-10-22T05:04:17.495Z,62.49
2022-10-22T05:06:44.408Z,62.19
2022-10-22T05:09:14.095Z,62.37
2022-10-22T05:11:46.315Z,63.12
2022-10-22T05:14:13.749Z,64.32
2022-10-22T05:16:40.748Z,63.70
2022-10-22T05:19:07.625Z,62.83
2022-10-22T05:21:35.026Z,62.69
2022-10-22T05:24:10.426Z,62.38
2022-10-22T05:26:37.021Z,62.63
2022-10-22T05:29:03.739Z,62.28
2022-10-22T05:31:30.308Z,62.34
2022-10-22T05:33:56.979Z,62.32
2022-10-22T05:36:23.740Z,61.43
2022-10-22T05:38:50.788Z,61.73
2022-10-22T05:41:20.081Z,62.30
2022-10-22T05:43:47.032Z,61.44
2022-10-22T05:46:22.447Z,60.84
2022-10-22T05:48:54.517Z,61.39
2022-10-22T05:51:21.778Z,62.02
2022-10-22T05:53:54.384Z,61.98
2022-10-22T05:56:21.955Z,61.54
2022-10-22T05:58:48.675Z,61.25
2022-10-22T06:01:29.473Z,61.27
2022-10-22T06:03:58.806Z,62.05
2022-10-22T06:06:35.636Z,61.93
2022-10-22T06:09:13.627Z,62.51
2022-10-22T06:11:40.364Z,61.97
2022-10-22T06:14:07.092Z,61.82
2022-10-22T06:16:33.912Z,61.94
2022-10-22T06:19:02.288Z,62.67
2022-10-22T06:21:30.331Z,62.14
2022-10-22T06:23:59.218Z,61.74
2022-10-22T06:26:26.411Z,62.20
2022-10-22T06:28:53.104Z,62.50
2022-10-22T06:31:19.926Z,61.77
2022-10-22T06:33:46.532Z,61.31
2022-10-22T06:36:18.716Z,61.68
2022-10-22T06:38:45.650Z,62.40
2022-10-22T06:41:15.109Z,61.64
2022-10-22T06:43:45.328Z,61.36
2022-10-22T06:46:14.786Z,60.81
2022-10-22T06:48:48.352Z,60.11
2022-10-22T06:51:15.022Z,61.30
2022-10-22T06:53:41.979Z,61.14
2022-10-22T06:56:11.283Z,61.51
2022-10-22T06:58:38.271Z,60.77
2022-10-22T07:01:09.631Z,59.67
2022-10-22T07:03:36.510Z,59.48
2022-10-22T07:06:05.878Z,59.38
2022-10-22T07:08:34.398Z,59.20
2022-10-22T07:11:12.939Z,58.58
2022-10-22T07:13:39.918Z,58.12
2022-10-22T07:16:08.075Z,58.24
2022-10-22T07:18:35.885Z,59.14
2022-10-22T07:21:06.184Z,58.82
2022-10-22T07:23:33.050Z,58.47
2022-10-22T07:26:02.491Z,57.95
2022-10-22T07:28:30.745Z,58.20
2022-10-22T07:30:57.359Z,58.68
2022-10-22T07:33:23.969Z,59.25
2022-10-22T07:35:52.519Z,57.82
2022-10-22T07:38:19.086Z,58.20
2022-10-22T07:40:45.786Z,57.05
2022-10-22T07:43:12.358Z,57.51
2022-10-22T07:45:39.129Z,58.84
2022-10-22T07:48:06.168Z,57.05
2022-10-22T07:50:32.812Z,58.98
2022-10-22T07:52:59.497Z,57.19
2022-10-22T07:55:26.347Z,56.21
2022-10-22T07:57:53.246Z,56.40
2022-10-22T08:00:23.078Z,56.12
2022-10-22T08:02:52.283Z,56.60
2022-10-22T08:05:19.674Z,57.37
2022-10-22T08:07:46.306Z,56.17
2022-10-22T08:10:13.795Z,56.04
2022-10-22T08:12:41.000Z,55.35
2022-10-22T08:15:08.566Z,55.00
2022-10-22T08:17:35.244Z,54.76
2022-10-22T08:20:03.091Z,54.41
2022-10-22T08:22:29.771Z,54.64
2022-10-22T08:24:56.362Z,54.48
2022-10-22T08:27:23.181Z,54.63
2022-10-22T08:29:49.747Z,54.08
2022-10-22T08:32:16.691Z,54.72
2022-10-22T08:34:43.407Z,54.22
2022-10-22T08:37:14.224Z,53.00
2022-10-22T08:39:41.514Z,53.14
2022-10-22T08:42:35.593Z,53.53
2022-10-22T08:45:02.681Z,52.65
2022-10-22T08:47:31.887Z,52.55
2022-10-22T08:50:00.408Z,53.25
2022-10-22T08:52:27.174Z,53.68
2022-10-22T08:54:58.235Z,53.23
2022-10-22T08:57:49.894Z,53.33
2022-10-22T09:00:25.274Z,53.05
2022-10-22T09:03:08.163Z,53.58
2022-10-22T09:08:23.816Z,52.74
2022-10-22T09:11:21.590Z,52.66
2022-10-22T09:13:49.291Z,51.33
2022-10-22T09:16:24.610Z,52.70
2022-10-22T09:19:02.980Z,52.49
2022-10-22T09:21:42.689Z,51.42
2022-10-22T09:24:42.376Z,50.60
2022-10-22T09:27:35.359Z,50.67
2022-10-22T09:30:02.173Z,50.97
2022-10-22T09:32:29.086Z,51.56
2022-10-22T09:34:58.401Z,51.74
2022-10-22T09:37:28.458Z,51.16
2022-10-22T09:39:57.287Z,50.88
2022-10-22T09:42:23.875Z,50.04
2022-10-22T09:44:58.499Z,49.72
2022-10-22T09:47:43.579Z,50.32
2022-10-22T09:50:27.673Z,50.51
2022-10-22T09:53:35.581Z,50.73
2022-10-22T09:56:09.366Z,50.11
2022-10-22T09:58:44.072Z,50.19
2022-10-22T10:01:17.615Z,49.84
2022-10-22T10:03:44.293Z,50.11
2022-10-22T10:06:12.561Z,49.68
2022-10-22T10:08:39.336Z,49.50
2022-10-22T10:11:28.808Z,50.83
2022-10-22T10:14:14.145Z,50.17
2022-10-22T10:16:49.110Z,49.16
2022-10-22T10:19:18.657Z,50.51
2022-10-22T10:21:57.382Z,49.52
2022-10-22T10:24:30.110Z,48.55
2022-10-22T10:27:13.134Z,49.37
2022-10-22T10:29:54.718Z,48.46
2022-10-22T10:33:12.340Z,47.81
2022-10-22T10:35:56.943Z,48.31
2022-10-22T10:38:56.281Z,47.90
2022-10-22T10:41:35.995Z,49.13
2022-10-22T10:44:26.559Z,48.25
2022-10-22T10:46:53.132Z,47.54
2022-10-22T10:49:33.324Z,47.22
2022-10-22T10:52:21.445Z,47.91
2022-10-22T10:55:35.771Z,47.53
2022-10-22T10:58:12.490Z,48.28
2022-10-22T11:00:55.761Z,46.93
2022-10-22T11:03:40.338Z,47.54
2022-10-22T11:06:14.696Z,46.74
2022-10-22T11:08:46.736Z,45.95
2022-10-22T11:11:21.560Z,46.78
2022-10-22T11:14:03.407Z,45.98
2022-10-22T11:16:37.266Z,45.98
2022-10-22T11:19:49.562Z,46.03
2022-10-22T11:23:18.941Z,46.27
2022-10-22T11:25:48.497Z,46.07
2022-10-22T11:28:35.433Z,46.06
2022-10-22T11:31:10.550Z,46.49
2022-10-22T11:33:47.631Z,46.36
2022-10-22T11:36:15.912Z,45.32
2022-10-22T11:38:42.852Z,45.75
2022-10-22T11:41:16.893Z,45.58
2022-10-22T11:43:55.485Z,45.51
2022-10-22T11:46:21.993Z,45.43
2022-10-22T11:49:23.191Z,45.07
2022-10-22T11:51:50.471Z,46.05
2022-10-22T11:54:29.324Z,45.02
2022-10-22T11:57:25.398Z,45.20
2022-10-22T11:59:58.594Z,45.60
2022-10-22T12:02:27.798Z,44.92
2022-10-22T12:05:33.427Z,44.70
2022-10-22T12:08:27.175Z,45.01
2022-10-22T12:11:00.257Z,44.25
2022-10-22T12:13:58.809Z,44.43
2022-10-22T12:16:44.036Z,42.72
2022-10-22T12:19:18.368Z,42.83
2022-10-22T12:21:59.276Z,42.62
2022-10-22T12:24:34.413Z,43.51
2022-10-22T12:27:03.784Z,43.53
2022-10-22T12:29:32.870Z,43.06
2022-10-22T12:32:04.156Z,42.25
2022-10-22T12:34:30.903Z,42.46
2022-10-22T12:36:57.508Z,42.19
2022-10-22T12:39:28.003Z,42.25
2022-10-22T12:41:55.116Z,42.00
2022-10-22T12:44:21.939Z,42.25
2022-10-22T12:46:53.096Z,42.05
2022-10-22T12:49:30.746Z,42.06
2022-10-22T12:52:04.005Z,41.67
2022-10-22T12:54:33.137Z,41.80
2022-10-22T12:57:00.629Z,40.83
2022-10-22T12:59:35.467Z,41.01
2022-10-22T13:02:07.860Z,41.49
2022-10-22T13:04:38.044Z,41.21
2022-10-22T13:07:18.372Z,42.00
2022-10-22T13:09:58.222Z,41.19
2022-10-22T13:12:35.432Z,41.43
2022-10-22T13:15:20.965Z,41.39
2022-10-22T13:17:49.327Z,41.22
2022-10-22T13:20:18.415Z,42.19
2022-10-22T13:23:05.508Z,41.69
2022-10-22T13:25:34.692Z,41.59
2022-10-22T13:28:15.912Z,41.99
2022-10-22T13:30:53.553Z,41.91
2022-10-22T13:33:26.509Z,42.69
2022-10-22T13:35:55.166Z,42.93
2022-10-22T13:38:24.089Z,42.66
2022-10-22T13:40:50.963Z,42.18
2022-10-22T13:43:18.526Z,42.65
2022-10-22T13:45:47.129Z,42.03
2022-10-22T13:48:21.829Z,42.03
2022-10-22T13:50:50.042Z,42.99
2022-10-22T13:53:19.281Z,42.46
2022-10-22T13:55:46.182Z,42.86
2022-10-22T14:00:54.843Z,42.64
2022-10-22T14:03:26.420Z,43.95
2022-10-22T14:05:53.133Z,43.78
2022-10-22T14:08:22.450Z,43.59
2022-10-22T14:10:49.165Z,44.26
2022-10-22T14:13:17.624Z,45.01
2022-10-22T14:15:46.916Z,45.41
2022-10-22T14:18:24.267Z,46.21
2022-10-22T14:20:54.131Z,46.39
2022-10-22T14:23:23.259Z,46.68
2022-10-22T14:25:52.678Z,46.33
2022-10-22T14:28:19.431Z,47.19
2022-10-22T14:30:46.809Z,46.30
2022-10-22T14:33:14.962Z,46.82
2022-10-22T14:35:41.972Z,46.96
2022-10-22T14:38:11.413Z,46.74
2022-10-22T14:40:40.193Z,46.97
2022-10-22T14:43:06.848Z,47.06
2022-10-22T14:45:33.490Z,47.47
2022-10-22T14:48:00.158Z,47.22
2022-10-22T14:50:26.768Z,47.49
2022-10-22T14:53:05.971Z,47.62
2022-10-22T14:55:32.646Z,47.19
2022-10-22T14:57:59.295Z,46.69
2022-10-22T15:00:26.528Z,47.11
2022-10-22T15:02:55.751Z,47.24
2022-10-22T15:05:22.912Z,47.41
2022-10-22T15:07:49.557Z,47.35
2022-10-22T15:10:16.494Z,47.32
2022-10-22T15:12:43.232Z,47.54
2022-10-22T15:15:10.178Z,47.63
2022-10-22T15:17:36.858Z,47.64
2022-10-22T15:20:05.559Z,47.31
2022-10-22T15:22:35.277Z,47.32
2022-10-22T15:25:13.098Z,47.57
2022-10-22T15:27:39.929Z,48.13
2022-10-22T15:30:07.356Z,48.49
2022-10-22T15:32:34.205Z,48.54
2022-10-22T15:35:01.658Z,48.40
2022-10-22T15:37:28.383Z,48.16
2022-10-22T15:39:54.994Z,48.05
2022-10-22T15:42:23.318Z,48.68
2022-10-22T15:44:56.817Z,48.80
2022-10-22T15:47:25.299Z,48.64
2022-10-22T15:49:51.887Z,49.23
2022-10-22T15:52:18.517Z,49.22
2022-10-22T15:54:45.246Z,49.08
2022-10-22T15:57:11.938Z,49.08
2022-10-22T15:59:38.699Z,49.39
2022-10-22T16:02:05.317Z,49.74
2022-10-22T16:04:31.928Z,49.67
2022-10-22T16:06:59.263Z,49.84
2022-10-22T16:09:27.231Z,49.70
2022-10-22T16:11:55.147Z,49.40
2022-10-22T16:14:23.543Z,50.01
2022-10-22T16:16:55.509Z,50.05
2022-10-22T16:19:24.628Z,50.07
2022-10-22T16:21:53.932Z,49.93
2022-10-22T16:24:21.382Z,49.57
2022-10-22T16:26:48.724Z,49.72
2022-10-22T16:29:16.988Z,50.16
2022-10-22T16:31:44.095Z,50.27
2022-10-22T16:34:10.869Z,50.37
2022-10-22T16:36:38.400Z,51.35
2022-10-22T16:39:05.838Z,50.98
2022-10-22T16:41:35.527Z,50.47
2022-10-22T16:44:05.811Z,50.32
2022-10-22T16:46:33.382Z,50.24
2022-10-22T16:51:41.149Z,49.54
2022-10-22T16:54:11.337Z,49.18
2022-10-22T16:56:39.393Z,48.87
2022-10-22T16:59:06.920Z,48.69
2022-10-22T17:01:37.875Z,48.24
2022-10-22T17:04:06.289Z,48.34
2022-10-22T17:06:32.930Z,48.06
2022-10-22T17:08:59.692Z,48.34
2022-10-22T17:11:26.389Z,49.30
2022-10-22T17:13:54.433Z,49.79
2022-10-22T17:16:24.958Z,49.62
2022-10-22T17:18:53.594Z,49.33
2022-10-22T17:21:21.557Z,48.98
2022-10-22T17:23:48.242Z,49.15
2022-10-22T17:26:20.541Z,49.37
2022-10-22T17:28:48.016Z,48.56
2022-10-22T17:31:26.434Z,47.93
2022-10-22T17:33:55.352Z,48.01
2022-10-22T17:36:23.518Z,48.17
2022-10-22T17:38:52.892Z,48.14
2022-10-22T17:41:24.997Z,48.22
2022-10-22T17:43:51.789Z,48.43
2022-10-22T17:46:25.004Z,47.93
2022-10-22T17:48:57.101Z,48.08
2022-10-22T17:51:25.005Z,47.97
2022-10-22T17:53:52.612Z,48.19
2022-10-22T17:56:22.139Z,48.25
2022-10-22T17:58:49.193Z,48.43
2022-10-22T18:01:35.420Z,49.08
2022-10-22T18:04:08.023Z,48.40
2022-10-22T18:06:35.686Z,48.39
2022-10-22T18:09:18.655Z,48.34
2022-10-22T18:11:46.716Z,48.81
2022-10-22T18:14:13.403Z,48.66
2022-10-22T18:16:40.090Z,49.00
2022-10-22T18:19:06.714Z,49.06
2022-10-22T18:21:34.017Z,49.13
2022-10-22T18:24:00.643Z,49.25
2022-10-22T18:26:27.489Z,49.26
2022-10-22T18:28:54.876Z,51.71
2022-10-22T18:31:23.658Z,52.00
2022-10-22T18:33:50.834Z,51.61
2022-10-22T18:36:25.771Z,51.77
2022-10-22T18:38:58.791Z,52.03
2022-10-22T18:41:26.693Z,52.29
2022-10-22T18:43:55.298Z,51.64
2022-10-22T18:46:22.257Z,51.34
2022-10-22T18:48:51.676Z,51.20
2022-10-22T18:51:21.969Z,51.03
2022-10-22T18:54:05.035Z,51.30
2022-10-22T18:56:32.328Z,51.47
2022-10-22T18:58:58.984Z,51.22
2022-10-22T19:01:29.411Z,51.57
2022-10-22T19:03:56.953Z,51.86
2022-10-22T19:06:34.561Z,52.48
2022-10-22T19:09:04.389Z,52.28
2022-10-22T19:11:31.609Z,52.27
2022-10-22T19:13:58.573Z,52.19
2022-10-22T19:16:26.755Z,52.21
2022-10-22T19:19:03.045Z,52.04
2022-10-22T19:21:30.304Z,51.85
2022-10-22T19:23:58.989Z,51.59
2022-10-22T19:26:27.651Z,51.51
2022-10-22T19:28:55.043Z,51.56
2022-10-22T19:31:24.530Z,51.45
2022-10-22T19:33:54.564Z,51.95
2022-10-22T19:36:24.401Z,52.76
2022-10-22T19:38:51.249Z,52.75
2022-10-22T19:41:20.552Z,53.07
2022-10-22T19:44:04.990Z,52.84
2022-10-22T19:46:32.715Z,52.79
2022-10-22T19:48:59.837Z,54.22
2022-10-22T19:51:31.872Z,53.54
2022-10-22T19:54:00.839Z,53.38
2022-10-22T19:56:28.773Z,53.88
2022-10-22T19:58:55.517Z,53.37
2022-10-22T20:01:22.770Z,54.32
2022-10-22T20:03:52.882Z,53.66
2022-10-22T20:06:20.616Z,53.33
2022-10-22T20:08:48.379Z,53.22
2022-10-22T20:11:21.708Z,52.77
2022-10-22T20:13:51.389Z,52.96
2022-10-22T20:16:24.362Z,52.70
2022-10-22T20:18:52.727Z,52.43
2022-10-22T20:21:20.226Z,52.53
2022-10-22T20:23:48.213Z,52.58
2022-10-22T20:26:14.841Z,53.60
2022-10-22T20:28:41.569Z,52.88
2022-10-22T20:31:13.394Z,52.58
2022-10-22T20:33:40.246Z,52.29
2022-10-22T20:36:09.495Z,51.86
2022-10-22T20:41:06.614Z,52.13
2022-10-22T20:43:34.019Z,52.20
2022-10-22T20:46:01.101Z,52.05
2022-10-22T20:48:31.340Z,51.95
2022-10-22T20:51:01.941Z,51.82
2022-10-22T20:53:28.637Z,51.71
2022-10-22T20:55:59.021Z,51.67
2022-10-22T20:58:27.193Z,51.97
2022-10-22T21:00:54.782Z,51.82
2022-10-22T21:03:21.749Z,51.92
2022-10-22T21:05:48.669Z,52.01
2022-10-22T21:08:18.371Z,52.00
2022-10-22T21:10:46.520Z,53.12
2022-10-22T21:13:13.868Z,53.29
2022-10-22T21:15:40.790Z,53.41
2022-10-22T21:18:09.005Z,52.91
2022-10-22T21:20:35.919Z,54.39
2022-10-22T21:23:02.611Z,54.05
2022-10-22T21:25:29.260Z,53.27
2022-10-22T21:27:56.010Z,52.87
2022-10-22T21:30:22.587Z,52.35
2022-10-22T21:32:52.175Z,52.87
2022-10-22T21:35:18.889Z,52.42
2022-10-22T21:37:47.931Z,52.33
2022-10-22T21:40:14.655Z,52.61
2022-10-22T21:42:41.242Z,52.82
2022-10-22T21:45:12.379Z,52.71
2022-10-22T21:47:41.769Z,53.24
2022-10-22T21:50:08.912Z,53.26
2022-10-22T21:52:35.454Z,53.32
2022-10-22T21:55:02.051Z,53.41
2022-10-22T21:57:28.739Z,53.31
2022-10-22T21:59:55.405Z,53.67
2022-10-22T22:02:22.059Z,54.11
2022-10-22T22:04:50.636Z,53.85
2022-10-22T22:07:17.245Z,54.21
2022-10-22T22:09:43.865Z,54.12
2022-10-22T22:12:10.566Z,54.62
2022-10-22T22:14:38.106Z,54.52
2022-10-22T22:17:04.673Z,54.44
2022-10-22T22:19:31.307Z,54.63
2022-10-22T22:21:57.966Z,54.28
2022-10-22T22:24:24.795Z,54.04
2022-10-22T22:26:51.472Z,54.04
2022-10-22T22:29:18.144Z,57.95
2022-10-22T22:31:45.947Z,57.76
2022-10-22T22:34:15.250Z,53.73
2022-10-22T22:36:45.638Z,53.05
2022-10-22T22:39:15.262Z,52.61
2022-10-22T22:41:42.475Z,52.12
2022-10-22T22:44:09.273Z,51.47
2022-10-22T22:46:36.337Z,52.23
2022-10-22T22:49:03.495Z,51.97
2022-10-22T22:51:30.121Z,52.36
2022-10-22T22:54:00.407Z,52.30
2022-10-22T22:56:29.818Z,52.51
2022-10-22T22:58:56.604Z,52.43
2022-10-22T23:01:35.301Z,54.92
2022-10-22T23:04:30.192Z,55.27
2022-10-22T23:06:56.856Z,54.51
2022-10-22T23:09:23.773Z,53.78
2022-10-22T23:11:50.812Z,55.01
2022-10-22T23:14:18.947Z,54.88
2022-10-22T23:16:48.867Z,54.56
2022-10-22T23:19:17.661Z,55.18
2022-10-22T23:21:47.985Z,54.72
2022-10-22T23:24:17.955Z,54.88
2022-10-22T23:26:48.600Z,54.87
2022-10-22T23:29:24.128Z,55.99
2022-10-22T23:31:51.747Z,55.47
2022-10-22T23:34:20.825Z,54.71
2022-10-22T23:36:47.888Z,54.74
2022-10-22T23:39:17.229Z,54.66
2022-10-22T23:41:44.376Z,54.59
2022-10-22T23:44:11.839Z,54.14
2022-10-22T23:46:38.792Z,53.74
2022-10-22T23:49:07.063Z,53.92
2022-10-22T23:51:33.835Z,54.39
2022-10-22T23:54:02.344Z,54.90
2022-10-22T23:56:29.759Z,54.42
2022-10-22T23:58:57.223Z,54.51
